Time;durP1;ratioP1;P1;durP2;ratioP2;P2;SDS_P1;SDS_P2;PMS_P1;PMS_P2;Temp;Humidity;BMP_temperature;BMP_pressure;BME280_temperature;BME280_humidity;BME280_pressure;Samples;Min_cycle;Max_cycle;Signal;HPM_P1;HPM_P2
2023/05/22 00:00:18;;;;;;;;;;;18.00;99.90;;;;;;7331894;19;110871;-61
2023/05/22 00:02:46;;;;;;;;;;;17.90;99.90;;;;;;7333106;19;110651;-60
2023/05/22 00:05:13;;;;;;;;;;;17.90;99.90;;;;;;7332534;19;110228;-60
2023/05/22 00:07:41;;;;;;;;;;;17.90;99.90;;;;;;7338701;19;110035;-60
2023/05/22 00:10:09;;;;;;;;;;;17.80;99.90;;;;;;7332088;19;110643;-60
2023/05/22 00:12:36;;;;;;;;;;;17.80;99.90;;;;;;7332564;19;109389;-61
2023/05/22 00:15:04;;;;;;;;;;;17.80;99.90;;;;;;7335347;19;109528;-60
2023/05/22 00:17:32;;;;;;;;;;;17.80;99.90;;;;;;7330568;19;110115;-60
2023/05/22 00:20:06;;;;;;;;;;;17.80;99.90;;;;;;7333693;19;109499;-60
2023/05/22 00:22:36;;;;;;;;;;;17.70;99.90;;;;;;7333158;19;110495;-60
2023/05/22 00:25:04;;;;;;;;;;;17.70;99.90;;;;;;7334509;19;113123;-60
2023/05/22 00:27:32;;;;;;;;;;;17.80;99.90;;;;;;7333920;19;110898;-60
2023/05/22 00:29:59;;;;;;;;;;;17.70;99.90;;;;;;7338010;19;110250;-60
2023/05/22 00:32:27;;;;;;;;;;;17.60;99.90;;;;;;7332478;19;109948;-60
2023/05/22 00:34:54;;;;;;;;;;;17.60;99.90;;;;;;7332410;19;111011;-60
2023/05/22 00:37:21;;;;;;;;;;;17.50;99.90;;;;;;7330717;19;111357;-61
2023/05/22 00:39:49;;;;;;;;;;;17.50;99.90;;;;;;7333318;19;109594;-61
2023/05/22 00:42:17;;;;;;;;;;;17.50;99.90;;;;;;7334386;19;109502;-60
2023/05/22 00:44:44;;;;;;;;;;;17.30;99.90;;;;;;7330993;19;111197;-60
2023/05/22 00:47:11;;;;;;;;;;;17.20;99.90;;;;;;7332044;19;109770;-60
2023/05/22 00:49:39;;;;;;;;;;;17.20;99.90;;;;;;7335970;19;109632;-60
2023/05/22 00:52:08;;;;;;;;;;;17.20;99.90;;;;;;7333971;19;111157;-60
2023/05/22 00:54:36;;;;;;;;;;;17.20;99.90;;;;;;7331945;19;110234;-61
2023/05/22 00:57:03;;;;;;;;;;;17.20;99.90;;;;;;7333342;19;110612;-60
2023/05/22 00:59:31;;;;;;;;;;;17.20;99.90;;;;;;7334837;19;109708;-60
2023/05/22 01:01:58;;;;;;;;;;;17.20;99.90;;;;;;7333750;19;110785;-60
2023/05/22 01:04:26;;;;;;;;;;;17.10;99.90;;;;;;7333253;19;111330;-60
2023/05/22 01:06:54;;;;;;;;;;;17.20;99.90;;;;;;7334880;19;111342;-60
2023/05/22 01:09:21;;;;;;;;;;;17.20;99.90;;;;;;7332932;19;110389;-60
2023/05/22 01:11:48;;;;;;;;;;;17.10;99.90;;;;;;7340204;19;111121;-61
2023/05/22 01:14:32;;;;;;;;;;;17.10;99.90;;;;;;7328352;19;111189;-60
2023/05/22 01:17:23;;;;;;;;;;;17.00;99.90;;;;;;7327897;19;110414;-60
2023/05/22 01:20:00;;;;;;;;;;;16.90;99.90;;;;;;7330203;19;111150;-59
2023/05/22 01:22:39;;;;;;;;;;;16.80;99.90;;;;;;7333960;19;110689;-60
2023/05/22 01:25:16;;;;;;;;;;;16.90;99.90;;;;;;7333735;19;130489;-60
2023/05/22 01:27:46;;;;;;;;;;;16.80;99.90;;;;;;7335354;19;109755;-60
2023/05/22 01:30:24;;;;;;;;;;;16.90;99.90;;;;;;7329506;19;110015;-60
2023/05/22 01:32:55;;;;;;;;;;;16.80;99.90;;;;;;7330848;19;110850;-60
2023/05/22 01:35:22;;;;;;;;;;;16.80;99.90;;;;;;7336696;19;109531;-60
2023/05/22 01:37:50;;;;;;;;;;;16.80;99.90;;;;;;7329635;19;113336;-60
2023/05/22 01:40:17;;;;;;;;;;;16.80;99.90;;;;;;7332583;19;109730;-60
2023/05/22 01:42:44;;;;;;;;;;;16.70;99.90;;;;;;7328667;19;110345;-60
2023/05/22 01:45:13;;;;;;;;;;;16.70;99.90;;;;;;7330292;19;110182;-60
2023/05/22 01:47:40;;;;;;;;;;;16.70;99.90;;;;;;7330224;19;109809;-61
2023/05/22 01:50:07;;;;;;;;;;;16.60;99.90;;;;;;7330523;19;111347;-61
2023/05/22 01:52:38;;;;;;;;;;;16.60;99.90;;;;;;7331988;19;113985;-60
2023/05/22 01:55:05;;;;;;;;;;;16.60;99.90;;;;;;7329365;19;111766;-61
2023/05/22 01:57:36;;;;;;;;;;;16.60;99.90;;;;;;7337540;19;110770;-61
2023/05/22 02:00:08;;;;;;;;;;;16.50;99.90;;;;;;7329657;19;109922;-60
2023/05/22 02:02:37;;;;;;;;;;;16.50;99.90;;;;;;7329648;19;110361;-61
2023/05/22 02:05:05;;;;;;;;;;;16.50;99.90;;;;;;7328107;19;110410;-60
2023/05/22 02:07:35;;;;;;;;;;;16.40;99.90;;;;;;7331647;19;109473;-60
2023/05/22 02:10:02;;;;;;;;;;;16.40;99.90;;;;;;7328369;19;109925;-61
2023/05/22 02:12:30;;;;;;;;;;;16.40;99.90;;;;;;7328187;19;110734;-60
2023/05/22 02:14:57;;;;;;;;;;;16.40;99.90;;;;;;7326216;19;111148;-68
2023/05/22 02:17:24;;;;;;;;;;;16.30;99.90;;;;;;7327156;19;110909;-61
2023/05/22 02:19:52;;;;;;;;;;;16.30;99.90;;;;;;7327686;19;112792;-61
2023/05/22 02:22:19;;;;;;;;;;;16.20;99.90;;;;;;7331136;19;109823;-61
2023/05/22 02:24:47;;;;;;;;;;;16.20;99.90;;;;;;7331883;19;110018;-61
2023/05/22 02:27:15;;;;;;;;;;;16.20;99.90;;;;;;7330379;19;110076;-60
2023/05/22 02:29:42;;;;;;;;;;;16.20;99.90;;;;;;7338855;19;110465;-61
2023/05/22 02:32:09;;;;;;;;;;;16.20;99.90;;;;;;7334667;19;110052;-61
2023/05/22 02:34:36;;;;;;;;;;;16.20;99.90;;;;;;7336498;19;109681;-61
2023/05/22 02:37:03;;;;;;;;;;;16.20;99.90;;;;;;7335291;19;109794;-60
2023/05/22 02:39:30;;;;;;;;;;;16.10;99.90;;;;;;7337194;19;110382;-60
2023/05/22 02:41:57;;;;;;;;;;;16.00;99.90;;;;;;7340767;19;110623;-60
2023/05/22 02:44:24;;;;;;;;;;;16.00;99.90;;;;;;7335854;19;110477;-60
2023/05/22 02:46:51;;;;;;;;;;;16.00;99.90;;;;;;7335982;19;109961;-60
2023/05/22 02:49:19;;;;;;;;;;;16.00;99.90;;;;;;7332666;19;111308;-60
2023/05/22 02:51:46;;;;;;;;;;;16.00;99.90;;;;;;7337329;19;110155;-60
2023/05/22 02:54:14;;;;;;;;;;;15.90;99.90;;;;;;7336453;19;109852;-60
2023/05/22 02:56:44;;;;;;;;;;;15.90;99.90;;;;;;7336737;19;109461;-60
2023/05/22 02:59:11;;;;;;;;;;;16.00;99.90;;;;;;7332548;19;110345;-61
2023/05/22 03:01:38;;;;;;;;;;;16.00;99.90;;;;;;7341057;19;109710;-60
2023/05/22 03:04:05;;;;;;;;;;;16.10;99.90;;;;;;7334997;19;111222;-61
2023/05/22 03:06:33;;;;;;;;;;;16.00;99.90;;;;;;7336883;19;109457;-60
2023/05/22 03:09:02;;;;;;;;;;;16.00;99.90;;;;;;7333002;19;109872;-61
2023/05/22 03:11:30;;;;;;;;;;;16.00;99.90;;;;;;7334956;19;111440;-61
2023/05/22 03:13:57;;;;;;;;;;;15.90;99.90;;;;;;7335819;19;109490;-60
2023/05/22 03:16:25;;;;;;;;;;;15.90;99.90;;;;;;7334652;19;111058;-60
2023/05/22 03:19:14;;;;;;;;;;;15.90;99.90;;;;;;7336668;19;110634;-60
2023/05/22 03:21:44;;;;;;;;;;;15.90;99.90;;;;;;7335265;19;109598;-60
2023/05/22 03:24:11;;;;;;;;;;;15.90;99.90;;;;;;7339673;19;111042;-60
2023/05/22 03:26:38;;;;;;;;;;;16.00;99.90;;;;;;7334047;19;109446;-60
2023/05/22 03:29:05;;;;;;;;;;;16.00;99.90;;;;;;7336798;19;111222;-60
2023/05/22 03:31:33;;;;;;;;;;;16.00;99.90;;;;;;7330819;19;111246;-60
2023/05/22 03:34:01;;;;;;;;;;;16.00;99.90;;;;;;7335699;19;110389;-60
2023/05/22 03:36:28;;;;;;;;;;;16.00;99.90;;;;;;7332636;19;109371;-60
2023/05/22 03:38:58;;;;;;;;;;;16.00;99.90;;;;;;7334822;19;112247;-60
2023/05/22 03:41:25;;;;;;;;;;;16.00;99.90;;;;;;7334076;19;109383;-60
2023/05/22 03:43:52;;;;;;;;;;;16.00;99.90;;;;;;7336307;19;109331;-60
2023/05/22 03:46:19;;;;;;;;;;;16.00;99.90;;;;;;7335333;19;110501;-60
2023/05/22 03:48:46;;;;;;;;;;;16.00;99.90;;;;;;7334266;19;109516;-60
2023/05/22 03:51:13;;;;;;;;;;;16.00;99.90;;;;;;7331483;19;112754;-60
2023/05/22 03:53:40;;;;;;;;;;;16.00;99.90;;;;;;7335569;19;109864;-60
2023/05/22 03:56:07;;;;;;;;;;;15.80;99.90;;;;;;7334882;19;110229;-60
2023/05/22 03:58:34;;;;;;;;;;;15.70;99.90;;;;;;7333602;19;112439;-60
2023/05/22 04:01:02;;;;;;;;;;;15.70;99.90;;;;;;7333819;19;109923;-60
2023/05/22 04:03:29;;;;;;;;;;;15.70;99.90;;;;;;7333252;19;110775;-61
2023/05/22 04:05:57;;;;;;;;;;;15.70;99.90;;;;;;7334944;19;110651;-60
2023/05/22 04:08:24;;;;;;;;;;;15.70;99.90;;;;;;7337424;19;109498;-60
2023/05/22 04:10:53;;;;;;;;;;;15.60;99.90;;;;;;7332970;19;110321;-60
2023/05/22 04:13:20;;;;;;;;;;;15.60;99.90;;;;;;7332608;19;111437;-60
2023/05/22 04:15:48;;;;;;;;;;;15.70;99.90;;;;;;7331816;19;109859;-61
2023/05/22 04:18:16;;;;;;;;;;;15.70;99.90;;;;;;7330427;19;110233;-60
2023/05/22 04:20:43;;;;;;;;;;;15.70;99.90;;;;;;7334612;19;109733;-60
2023/05/22 04:23:10;;;;;;;;;;;15.70;99.90;;;;;;7333507;19;114894;-60
2023/05/22 04:25:37;;;;;;;;;;;15.70;99.90;;;;;;7330566;19;111355;-60
2023/05/22 04:28:04;;;;;;;;;;;15.70;99.90;;;;;;7334471;19;109286;-60
2023/05/22 04:30:32;;;;;;;;;;;15.80;99.90;;;;;;7337319;19;110211;-60
2023/05/22 04:33:00;;;;;;;;;;;15.80;99.90;;;;;;7329095;19;110659;-60
2023/05/22 04:35:30;;;;;;;;;;;15.80;99.90;;;;;;7333793;19;111107;-60
2023/05/22 04:38:00;;;;;;;;;;;15.80;99.90;;;;;;7326853;19;110189;-60
2023/05/22 04:40:32;;;;;;;;;;;15.80;99.90;;;;;;7332987;19;110186;-60
2023/05/22 04:43:00;;;;;;;;;;;15.80;99.90;;;;;;7331450;19;111707;-60
2023/05/22 04:45:27;;;;;;;;;;;15.80;99.90;;;;;;7330527;19;111047;-60
2023/05/22 04:47:55;;;;;;;;;;;15.90;99.90;;;;;;7330958;19;110989;-60
2023/05/22 04:50:22;;;;;;;;;;;16.00;99.90;;;;;;7333119;19;109996;-60
2023/05/22 04:52:49;;;;;;;;;;;16.00;99.90;;;;;;7329952;19;110566;-60
2023/05/22 04:55:17;;;;;;;;;;;16.10;99.90;;;;;;7333611;19;110186;-60
2023/05/22 04:57:46;;;;;;;;;;;16.10;99.90;;;;;;7327338;19;112659;-61
2023/05/22 05:00:15;;;;;;;;;;;16.10;99.90;;;;;;7324279;19;111799;-60
2023/05/22 05:02:42;;;;;;;;;;;16.10;99.90;;;;;;7331946;19;109651;-61
2023/05/22 05:05:10;;;;;;;;;;;16.20;99.90;;;;;;7328529;19;110389;-60
2023/05/22 05:07:37;;;;;;;;;;;16.20;99.90;;;;;;7332257;19;109718;-60
2023/05/22 05:10:05;;;;;;;;;;;16.20;99.90;;;;;;7327511;19;110205;-61
2023/05/22 05:12:32;;;;;;;;;;;16.20;99.90;;;;;;7336668;19;110927;-60
2023/05/22 05:14:59;;;;;;;;;;;16.30;99.90;;;;;;7329342;19;110449;-60
2023/05/22 05:17:27;;;;;;;;;;;16.20;99.90;;;;;;7330197;19;111068;-60
2023/05/22 05:19:54;;;;;;;;;;;16.30;99.90;;;;;;7329282;19;109516;-60
2023/05/22 05:22:21;;;;;;;;;;;16.30;99.90;;;;;;7332032;19;111772;-61
2023/05/22 05:24:48;;;;;;;;;;;16.40;99.90;;;;;;7329597;19;112656;-60
2023/05/22 05:27:15;;;;;;;;;;;16.30;99.90;;;;;;7326123;19;110459;-61
2023/05/22 05:29:42;;;;;;;;;;;16.30;99.90;;;;;;7326969;19;110679;-60
2023/05/22 05:32:11;;;;;;;;;;;16.40;99.90;;;;;;7326130;19;111493;-60
2023/05/22 05:34:38;;;;;;;;;;;16.40;99.90;;;;;;7335443;19;110074;-60
2023/05/22 05:37:05;;;;;;;;;;;16.40;99.90;;;;;;7326687;19;112302;-60
2023/05/22 05:39:32;;;;;;;;;;;16.40;99.90;;;;;;7332925;19;110296;-60
2023/05/22 05:42:00;;;;;;;;;;;16.40;99.90;;;;;;7330578;19;110630;-60
2023/05/22 05:44:27;;;;;;;;;;;16.40;99.90;;;;;;7332890;19;110849;-60
2023/05/22 05:46:54;;;;;;;;;;;16.50;99.90;;;;;;7331040;19;109546;-61
2023/05/22 05:49:21;;;;;;;;;;;16.50;99.90;;;;;;7330250;19;111226;-60
2023/05/22 05:51:48;;;;;;;;;;;16.60;99.90;;;;;;7331791;19;110112;-60
2023/05/22 05:54:15;;;;;;;;;;;16.60;99.90;;;;;;7328808;19;113623;-61
2023/05/22 05:56:42;;;;;;;;;;;16.60;99.90;;;;;;7331326;19;112626;-61
2023/05/22 05:59:09;;;;;;;;;;;16.60;99.90;;;;;;7332793;19;109988;-60
2023/05/22 06:01:38;;;;;;;;;;;16.60;99.90;;;;;;7328625;19;109753;-62
2023/05/22 06:04:07;;;;;;;;;;;16.60;99.90;;;;;;7337406;19;112046;-61
2023/05/22 06:06:34;;;;;;;;;;;16.70;99.90;;;;;;7338548;19;109521;-61
2023/05/22 06:09:04;;;;;;;;;;;16.70;99.90;;;;;;7336972;19;109472;-62
2023/05/22 06:11:31;;;;;;;;;;;16.70;99.90;;;;;;7334470;19;111572;-62
2023/05/22 06:14:00;;;;;;;;;;;16.70;99.90;;;;;;7338760;19;109676;-61
2023/05/22 06:16:27;;;;;;;;;;;16.80;99.90;;;;;;7332792;19;109964;-61
2023/05/22 06:18:56;;;;;;;;;;;16.80;99.90;;;;;;7346901;19;111089;-62
2023/05/22 06:21:23;;;;;;;;;;;16.80;99.90;;;;;;7335241;19;111159;-62
2023/05/22 06:23:50;;;;;;;;;;;16.80;99.90;;;;;;7336023;19;111331;-62
2023/05/22 06:26:17;;;;;;;;;;;16.80;99.90;;;;;;7339806;19;109646;-62
2023/05/22 06:28:44;;;;;;;;;;;16.90;99.90;;;;;;7342509;19;109984;-61
2023/05/22 06:31:11;;;;;;;;;;;16.90;99.90;;;;;;7334822;19;111025;-61
2023/05/22 06:33:39;;;;;;;;;;;16.80;99.90;;;;;;7337605;19;110049;-61
2023/05/22 06:36:07;;;;;;;;;;;16.70;99.90;;;;;;7336782;19;109124;-61
2023/05/22 06:38:36;;;;;;;;;;;16.60;99.90;;;;;;7336725;19;110302;-61
2023/05/22 06:41:04;;;;;;;;;;;16.60;99.90;;;;;;7336194;19;111246;-62
2023/05/22 06:43:31;;;;;;;;;;;16.70;99.90;;;;;;7338443;19;110416;-62
2023/05/22 06:45:58;;;;;;;;;;;16.80;99.90;;;;;;7330927;19;112489;-62
2023/05/22 06:48:25;;;;;;;;;;;16.80;99.90;;;;;;7335749;19;110351;-61
2023/05/22 06:50:52;;;;;;;;;;;16.90;99.90;;;;;;7333134;19;111329;-62
2023/05/22 06:53:19;;;;;;;;;;;16.90;99.90;;;;;;7335526;19;112007;-63
2023/05/22 06:55:47;;;;;;;;;;;17.00;99.90;;;;;;7335075;19;111753;-61
2023/05/22 06:58:14;;;;;;;;;;;17.10;99.90;;;;;;7333082;19;110152;-62
2023/05/22 07:00:41;;;;;;;;;;;17.10;99.90;;;;;;7337112;19;109867;-62
2023/05/22 07:03:08;;;;;;;;;;;17.10;99.90;;;;;;7336436;19;109256;-63
2023/05/22 07:05:35;;;;;;;;;;;17.10;99.90;;;;;;7336186;19;109910;-61
2023/05/22 07:08:02;;;;;;;;;;;17.10;99.90;;;;;;7339000;19;110393;-62
2023/05/22 07:10:30;;;;;;;;;;;17.20;99.90;;;;;;7335587;19;111201;-62
2023/05/22 07:12:57;;;;;;;;;;;17.10;99.90;;;;;;7337663;19;109517;-62
2023/05/22 07:15:24;;;;;;;;;;;17.20;99.90;;;;;;7329164;19;110623;-62
2023/05/22 07:17:51;;;;;;;;;;;17.20;99.90;;;;;;7336010;19;110979;-62
2023/05/22 07:20:18;;;;;;;;;;;17.20;99.90;;;;;;7331486;19;110713;-62
2023/05/22 07:22:46;;;;;;;;;;;17.20;99.90;;;;;;7341742;19;109838;-61
2023/05/22 07:25:13;;;;;;;;;;;17.20;99.90;;;;;;7334809;19;109917;-61
2023/05/22 07:27:40;;;;;;;;;;;17.20;99.90;;;;;;7339465;19;110384;-62
2023/05/22 07:30:07;;;;;;;;;;;17.20;99.90;;;;;;7332954;19;109593;-61
2023/05/22 07:32:34;;;;;;;;;;;17.20;99.90;;;;;;7334270;19;109892;-62
2023/05/22 07:35:01;;;;;;;;;;;17.30;99.90;;;;;;7330224;19;110330;-62
2023/05/22 07:37:28;;;;;;;;;;;17.30;99.90;;;;;;7336131;19;111043;-61
2023/05/22 07:39:56;;;;;;;;;;;17.40;99.90;;;;;;7334896;19;110467;-62
2023/05/22 07:42:24;;;;;;;;;;;17.40;99.90;;;;;;7336348;19;110345;-64
2023/05/22 07:44:52;;;;;;;;;;;17.40;99.90;;;;;;7340019;19;110041;-62
2023/05/22 07:47:19;;;;;;;;;;;17.40;99.90;;;;;;7335074;19;110355;-63
2023/05/22 07:49:46;;;;;;;;;;;17.50;99.90;;;;;;7335515;19;110257;-65
2023/05/22 07:52:13;;;;;;;;;;;17.40;99.90;;;;;;7334795;19;109324;-61
2023/05/22 07:54:40;;;;;;;;;;;17.50;99.90;;;;;;7333540;19;109998;-61
2023/05/22 07:57:11;;;;;;;;;;;17.50;99.90;;;;;;7335050;19;110268;-61
2023/05/22 07:59:38;;;;;;;;;;;17.60;99.90;;;;;;7336343;19;110320;-62
2023/05/22 08:02:07;;;;;;;;;;;17.60;99.90;;;;;;7336913;19;109579;-61
2023/05/22 08:04:34;;;;;;;;;;;17.60;99.90;;;;;;7332316;19;110614;-61
2023/05/22 08:07:01;;;;;;;;;;;17.60;99.90;;;;;;7338647;19;111471;-61
2023/05/22 08:09:28;;;;;;;;;;;17.70;99.90;;;;;;7332785;19;111723;-61
2023/05/22 08:11:55;;;;;;;;;;;17.70;99.90;;;;;;7331142;19;109830;-61
2023/05/22 08:14:22;;;;;;;;;;;17.80;99.90;;;;;;7331223;19;110035;-61
2023/05/22 08:16:49;;;;;;;;;;;17.80;99.90;;;;;;7332027;19;111503;-61
2023/05/22 08:19:16;;;;;;;;;;;17.80;99.90;;;;;;7331656;19;109766;-61
2023/05/22 08:21:44;;;;;;;;;;;17.80;99.90;;;;;;7331794;19;110335;-61
2023/05/22 08:24:11;;;;;;;;;;;17.80;99.90;;;;;;7331504;19;110713;-61
2023/05/22 08:26:39;;;;;;;;;;;17.80;99.90;;;;;;7333969;19;109678;-61
2023/05/22 08:29:06;;;;;;;;;;;17.80;99.90;;;;;;7338841;19;110087;-62
2023/05/22 08:31:34;;;;;;;;;;;17.70;99.90;;;;;;7333389;19;110603;-61
2023/05/22 08:34:02;;;;;;;;;;;17.60;99.90;;;;;;7332005;19;111299;-61
2023/05/22 08:36:30;;;;;;;;;;;17.50;99.90;;;;;;7333403;19;111159;-63
2023/05/22 08:38:57;;;;;;;;;;;17.40;99.90;;;;;;7332588;19;109449;-62
2023/05/22 08:41:24;;;;;;;;;;;17.40;99.90;;;;;;7333679;19;110306;-62
2023/05/22 08:43:51;;;;;;;;;;;17.40;99.90;;;;;;7332907;19;110095;-62
2023/05/22 08:46:19;;;;;;;;;;;17.40;99.90;;;;;;7331005;19;109500;-61
2023/05/22 08:48:47;;;;;;;;;;;17.40;99.90;;;;;;7333435;19;109490;-63
2023/05/22 08:51:17;;;;;;;;;;;17.40;99.90;;;;;;7335777;19;110129;-62
2023/05/22 08:53:44;;;;;;;;;;;17.40;99.90;;;;;;7333769;19;109475;-62
2023/05/22 08:56:11;;;;;;;;;;;17.40;99.90;;;;;;7328143;19;110569;-61
2023/05/22 08:58:39;;;;;;;;;;;17.40;99.90;;;;;;7329932;19;111884;-61
2023/05/22 09:01:06;;;;;;;;;;;17.50;99.90;;;;;;7332382;19;109930;-61
2023/05/22 09:03:34;;;;;;;;;;;17.50;99.90;;;;;;7330597;19;110177;-62
2023/05/22 09:06:02;;;;;;;;;;;17.60;99.90;;;;;;7332651;19;110571;-61
2023/05/22 09:08:29;;;;;;;;;;;17.70;99.90;;;;;;7330921;19;111286;-61
2023/05/22 09:10:56;;;;;;;;;;;17.70;99.90;;;;;;7331273;19;110969;-61
2023/05/22 09:13:27;;;;;;;;;;;17.80;99.90;;;;;;7336033;19;109484;-61
2023/05/22 09:16:13;;;;;;;;;;;17.70;99.90;;;;;;7334438;19;115711;-61
2023/05/22 09:18:41;;;;;;;;;;;17.70;99.90;;;;;;7330968;19;110988;-61
2023/05/22 09:21:09;;;;;;;;;;;17.70;99.90;;;;;;7332627;19;110297;-61
2023/05/22 09:23:58;;;;;;;;;;;17.70;99.90;;;;;;7333486;19;114533;-60
2023/05/22 09:26:28;;;;;;;;;;;17.80;99.90;;;;;;7332361;19;109774;-60
2023/05/22 09:28:57;;;;;;;;;;;17.90;99.90;;;;;;7335037;19;109679;-61
2023/05/22 09:31:24;;;;;;;;;;;17.90;99.90;;;;;;7331988;19;110127;-61
2023/05/22 09:33:52;;;;;;;;;;;18.00;99.90;;;;;;7338540;19;110041;-60
2023/05/22 09:36:19;;;;;;;;;;;18.00;99.90;;;;;;7333720;19;110485;-61
2023/05/22 09:38:46;;;;;;;;;;;18.00;99.90;;;;;;7336426;19;109843;-61
2023/05/22 09:41:20;;;;;;;;;;;17.90;99.90;;;;;;7338772;19;110286;-61
2023/05/22 09:43:50;;;;;;;;;;;18.00;99.90;;;;;;7339898;19;110097;-61
2023/05/22 09:46:17;;;;;;;;;;;18.10;99.90;;;;;;7341692;19;109714;-60
2023/05/22 09:48:49;;;;;;;;;;;18.20;99.90;;;;;;7339898;19;109856;-60
2023/05/22 09:51:20;;;;;;;;;;;18.30;99.90;;;;;;7331269;19;110535;-61
2023/05/22 09:53:47;;;;;;;;;;;18.40;99.90;;;;;;7339407;19;109506;-61
2023/05/22 09:56:15;;;;;;;;;;;18.40;99.90;;;;;;7343921;19;110543;-63
2023/05/22 09:58:57;;;;;;;;;;;18.40;99.90;;;;;;7339108;19;109668;-61
2023/05/22 10:01:25;;;;;;;;;;;18.50;99.90;;;;;;7337402;19;112623;-60
2023/05/22 10:03:53;;;;;;;;;;;18.60;99.90;;;;;;7334877;19;111019;-61
2023/05/22 10:06:22;;;;;;;;;;;18.60;99.90;;;;;;7340232;19;110159;-61
2023/05/22 10:08:53;;;;;;;;;;;18.60;99.90;;;;;;7338294;19;110359;-60
2023/05/22 10:11:20;;;;;;;;;;;18.60;99.90;;;;;;7338146;19;115240;-59
2023/05/22 10:13:48;;;;;;;;;;;18.70;99.90;;;;;;7335679;19;110370;-61
2023/05/22 10:16:16;;;;;;;;;;;18.80;99.90;;;;;;7337244;19;109680;-61
2023/05/22 10:18:47;;;;;;;;;;;18.90;99.90;;;;;;7343591;19;110097;-62
2023/05/22 10:21:15;;;;;;;;;;;19.00;99.90;;;;;;7337890;19;109288;-61
2023/05/22 10:23:42;;;;;;;;;;;19.10;99.90;;;;;;7335159;19;111105;-61
2023/05/22 10:26:09;;;;;;;;;;;19.20;99.90;;;;;;7335988;19;110198;-65
2023/05/22 10:28:41;;;;;;;;;;;19.30;99.90;;;;;;7338617;19;110576;-61
2023/05/22 10:31:13;;;;;;;;;;;19.40;99.90;;;;;;7336343;19;110228;-61
2023/05/22 10:33:43;;;;;;;;;;;19.50;99.90;;;;;;7333989;19;110493;-61
2023/05/22 10:36:15;;;;;;;;;;;19.50;99.90;;;;;;7337656;19;109721;-61
2023/05/22 10:38:42;;;;;;;;;;;19.60;99.90;;;;;;7334710;19;110090;-61
2023/05/22 10:41:12;;;;;;;;;;;19.70;99.90;;;;;;7341049;19;109523;-62
2023/05/22 10:43:41;;;;;;;;;;;19.80;99.90;;;;;;7335679;19;110237;-61
2023/05/22 10:46:10;;;;;;;;;;;19.90;99.90;;;;;;7336173;19;110672;-61
2023/05/22 10:48:38;;;;;;;;;;;20.00;99.90;;;;;;7332701;19;110928;-61
2023/05/22 10:51:08;;;;;;;;;;;20.10;99.90;;;;;;7336509;19;110737;-61
2023/05/22 10:53:35;;;;;;;;;;;20.20;99.90;;;;;;7332223;19;109864;-64
2023/05/22 10:56:12;;;;;;;;;;;20.30;99.90;;;;;;7334001;19;110176;-64
2023/05/22 10:58:41;;;;;;;;;;;20.40;99.90;;;;;;7335630;19;112205;-64
2023/05/22 11:01:15;;;;;;;;;;;20.60;99.90;;;;;;7336058;19;110630;-64
2023/05/22 11:03:54;;;;;;;;;;;20.80;99.90;;;;;;7343291;19;110457;-64
2023/05/22 11:06:40;;;;;;;;;;;21.00;99.90;;;;;;7337719;19;110855;-64
2023/05/22 11:09:30;;;;;;;;;;;21.10;99.90;;;;;;7335473;19;109282;-64
2023/05/22 11:12:09;;;;;;;;;;;21.20;99.90;;;;;;7334717;19;110401;-64
2023/05/22 11:14:36;;;;;;;;;;;21.40;99.90;;;;;;7338227;19;109963;-64
2023/05/22 11:17:06;;;;;;;;;;;21.40;99.90;;;;;;7337114;19;110097;-64
2023/05/22 11:19:33;;;;;;;;;;;21.40;99.90;;;;;;7336310;19;111170;-64
2023/05/22 11:22:02;;;;;;;;;;;21.50;99.90;;;;;;7336295;19;110147;-64
2023/05/22 11:24:35;;;;;;;;;;;21.60;99.90;;;;;;7341235;19;109795;-64
2023/05/22 11:27:06;;;;;;;;;;;21.80;99.90;;;;;;7335152;19;109551;-64
2023/05/22 11:29:33;;;;;;;;;;;21.90;99.90;;;;;;7335775;19;109682;-64
2023/05/22 11:32:00;;;;;;;;;;;22.00;99.90;;;;;;7336344;19;110278;-64
2023/05/22 11:34:27;;;;;;;;;;;22.20;99.90;;;;;;7333378;19;111056;-64
2023/05/22 11:36:58;;;;;;;;;;;22.30;99.90;;;;;;7337445;19;110060;-64
2023/05/22 11:39:26;;;;;;;;;;;22.40;99.90;;;;;;7335311;19;111064;-64
2023/05/22 11:41:53;;;;;;;;;;;22.40;99.90;;;;;;7336877;19;109990;-64
2023/05/22 11:44:20;;;;;;;;;;;22.50;99.90;;;;;;7334951;19;109981;-64
2023/05/22 11:46:47;;;;;;;;;;;22.60;99.90;;;;;;7342278;19;110092;-63
2023/05/22 11:49:16;;;;;;;;;;;22.70;99.90;;;;;;7334686;19;111524;-64
2023/05/22 11:51:43;;;;;;;;;;;22.60;99.90;;;;;;7335056;19;111095;-64
2023/05/22 11:54:10;;;;;;;;;;;22.70;99.90;;;;;;7333885;19;110546;-64
2023/05/22 11:56:37;;;;;;;;;;;22.90;99.90;;;;;;7326056;19;110354;-64
2023/05/22 11:59:04;;;;;;;;;;;23.00;99.90;;;;;;7333966;19;110098;-64
2023/05/22 12:01:32;;;;;;;;;;;23.00;99.90;;;;;;7333122;19;110882;-64
2023/05/22 12:03:59;;;;;;;;;;;23.20;99.90;;;;;;7334983;19;111910;-64
2023/05/22 12:06:26;;;;;;;;;;;23.30;99.90;;;;;;7335738;19;110581;-64
2023/05/22 12:08:53;;;;;;;;;;;23.30;99.90;;;;;;7340243;19;110691;-63
2023/05/22 12:11:20;;;;;;;;;;;23.40;99.90;;;;;;7331301;19;110129;-64
2023/05/22 12:13:50;;;;;;;;;;;23.50;99.90;;;;;;7332841;19;109462;-64
2023/05/22 12:16:20;;;;;;;;;;;23.50;99.90;;;;;;7333481;19;109457;-65
2023/05/22 12:18:51;;;;;;;;;;;23.60;99.90;;;;;;7332972;19;110242;-64
2023/05/22 12:21:19;;;;;;;;;;;23.70;99.90;;;;;;7332758;19;109865;-63
2023/05/22 12:23:46;;;;;;;;;;;23.70;99.90;;;;;;7334387;19;109997;-64
2023/05/22 12:26:14;;;;;;;;;;;23.80;99.90;;;;;;7334377;19;111567;-64
2023/05/22 12:28:41;;;;;;;;;;;23.90;99.90;;;;;;7333240;19;110135;-64
2023/05/22 12:31:08;;;;;;;;;;;24.00;99.90;;;;;;7336767;19;109440;-64
2023/05/22 12:33:38;;;;;;;;;;;24.00;99.90;;;;;;7335331;19;111264;-64
2023/05/22 12:36:09;;;;;;;;;;;23.90;99.90;;;;;;7332656;19;109663;-64
2023/05/22 12:38:37;;;;;;;;;;;24.10;99.90;;;;;;7335061;19;110187;-64
2023/05/22 12:41:04;;;;;;;;;;;24.20;99.90;;;;;;7333737;19;109373;-64
2023/05/22 12:43:31;;;;;;;;;;;24.20;99.90;;;;;;7336310;19;109697;-64
2023/05/22 12:45:58;;;;;;;;;;;24.20;99.90;;;;;;7333469;19;110442;-64
2023/05/22 12:48:28;;;;;;;;;;;24.30;99.90;;;;;;7334824;19;110322;-64
2023/05/22 12:50:55;;;;;;;;;;;24.40;99.90;;;;;;7332079;19;109555;-64
2023/05/22 12:53:22;;;;;;;;;;;24.60;99.90;;;;;;7338429;19;111632;-64
2023/05/22 12:55:49;;;;;;;;;;;24.60;99.90;;;;;;7330524;19;109335;-64
2023/05/22 12:58:16;;;;;;;;;;;24.80;99.90;;;;;;7331937;19;110135;-64
2023/05/22 13:00:43;;;;;;;;;;;25.00;99.90;;;;;;7331662;19;109585;-64
2023/05/22 13:03:11;;;;;;;;;;;24.90;99.90;;;;;;7334597;19;110778;-64
2023/05/22 13:05:38;;;;;;;;;;;25.00;99.90;;;;;;7327208;19;111602;-64
2023/05/22 13:08:05;;;;;;;;;;;25.10;99.90;;;;;;7332900;19;109670;-64
2023/05/22 13:10:34;;;;;;;;;;;25.20;99.90;;;;;;7330890;19;110740;-64
2023/05/22 13:13:01;;;;;;;;;;;25.30;99.90;;;;;;7330711;19;110409;-64
2023/05/22 13:15:28;;;;;;;;;;;25.40;99.90;;;;;;7338693;19;110416;-64
2023/05/22 13:17:55;;;;;;;;;;;25.10;99.90;;;;;;7332993;19;111036;-65
2023/05/22 13:20:23;;;;;;;;;;;25.10;99.90;;;;;;7334626;19;109819;-64
2023/05/22 13:22:50;;;;;;;;;;;25.30;99.90;;;;;;7333311;19;110078;-65
2023/05/22 13:25:17;;;;;;;;;;;25.50;99.90;;;;;;7330584;19;110411;-65
2023/05/22 13:27:45;;;;;;;;;;;25.60;99.90;;;;;;7334442;19;109530;-65
2023/05/22 13:30:12;;;;;;;;;;;25.80;99.90;;;;;;7331943;19;111721;-64
2023/05/22 13:32:39;;;;;;;;;;;25.80;99.90;;;;;;7333585;19;110116;-64
2023/05/22 13:35:06;;;;;;;;;;;25.60;99.90;;;;;;7337046;19;109987;-65
2023/05/22 13:37:34;;;;;;;;;;;25.60;99.90;;;;;;7331695;19;111151;-64
2023/05/22 13:40:01;;;;;;;;;;;25.80;99.90;;;;;;7328079;19;110830;-65
2023/05/22 13:42:29;;;;;;;;;;;25.90;99.90;;;;;;7330197;19;110194;-65
2023/05/22 13:44:56;;;;;;;;;;;26.10;99.90;;;;;;7330559;19;111283;-65
2023/05/22 13:47:24;;;;;;;;;;;26.30;99.90;;;;;;7331023;19;110207;-65
2023/05/22 13:49:52;;;;;;;;;;;26.40;99.90;;;;;;7331355;19;111953;-65
2023/05/22 13:52:19;;;;;;;;;;;26.50;99.90;;;;;;7330632;19;111618;-65
2023/05/22 13:54:46;;;;;;;;;;;26.50;99.90;;;;;;7327303;19;110223;-65
2023/05/22 13:57:13;;;;;;;;;;;26.50;99.90;;;;;;7334285;19;112581;-65
2023/05/22 13:59:40;;;;;;;;;;;26.50;99.90;;;;;;7325233;19;110080;-65
2023/05/22 14:02:07;;;;;;;;;;;26.60;99.90;;;;;;7326833;19;110327;-65
2023/05/22 14:04:34;;;;;;;;;;;26.50;99.90;;;;;;7329955;19;112105;-65
2023/05/22 14:07:01;;;;;;;;;;;26.40;99.90;;;;;;7329622;19;110981;-65
2023/05/22 14:09:29;;;;;;;;;;;26.10;99.90;;;;;;7329922;19;110162;-67